Time;durP1;ratioP1;P1;durP2;ratioP2;P2;SDS_P1;SDS_P2;PMS_P1;PMS_P2;Temp;Humidity;BMP_temperature;BMP_pressure;BME280_temperature;BME280_humidity;BME280_pressure;Samples;Min_cycle;Max_cycle;Signal;HPM_P1;HPM_P2
2021/10/30 00:01:46;;;;;;;86.72;56.78;;;179.40;2252.80;;;;;;5094071;28;20048;-81
2021/10/30 00:04:13;;;;;;;79.10;53.85;;;179.40;2252.80;;;;;;5093941;28;20040;-81
2021/10/30 00:06:39;;;;;;;83.72;52.65;;;179.40;2252.80;;;;;;5094327;28;20020;-80
2021/10/30 00:09:04;;;;;;;78.63;49.88;;;179.50;2252.80;;;;;;5092683;28;20471;-80
2021/10/30 00:11:30;;;;;;;78.13;51.22;;;179.40;2252.80;;;;;;5092847;28;20020;-82
2021/10/30 00:13:56;;;;;;;89.15;60.10;;;179.20;2252.80;;;;;;5093830;28;20020;-80
2021/10/30 00:16:22;;;;;;;83.80;55.58;;;154.50;2252.80;;;;;;5094945;28;20020;-81
2021/10/30 00:18:48;;;;;;;76.13;48.58;;;154.30;2252.80;;;;;;5093432;28;20020;-81
2021/10/30 00:21:14;;;;;;;86.18;49.92;;;154.30;2252.80;;;;;;5093647;28;20069;-82
2021/10/30 00:23:40;;;;;;;87.25;49.63;;;154.10;2252.80;;;;;;5093758;28;20363;-78
2021/10/30 00:26:06;;;;;;;79.03;44.60;;;154.00;2252.80;;;;;;5093226;28;20032;-80
2021/10/30 00:28:32;;;;;;;72.00;46.53;;;154.20;2252.80;;;;;;5093638;28;20027;-78
2021/10/30 00:30:58;;;;;;;68.05;46.05;;;154.40;2252.80;;;;;;5093888;28;20016;-80
2021/10/30 00:33:24;;;;;;;78.20;49.70;;;154.30;2252.80;;;;;;5093485;28;20111;-79
2021/10/30 00:35:50;;;;;;;89.25;54.30;;;154.30;2252.80;;;;;;5095318;28;20028;-81
2021/10/30 00:38:16;;;;;;;92.63;56.33;;;154.20;2252.80;;;;;;5093470;28;20079;-79
2021/10/30 00:40:41;;;;;;;202.85;95.07;;;154.20;2252.80;;;;;;5094247;28;20027;-80
2021/10/30 00:43:07;;;;;;;138.77;73.18;;;153.80;2252.80;;;;;;5092850;28;20048;-78
2021/10/30 00:45:33;;;;;;;96.72;56.25;;;153.90;2252.80;;;;;;5093203;28;20038;-79
2021/10/30 00:47:59;;;;;;;86.05;50.45;;;153.90;2252.80;;;;;;5093863;28;20031;-80
2021/10/30 00:50:25;;;;;;;87.38;49.08;;;154.00;2252.80;;;;;;5093285;28;20495;-82
2021/10/30 00:52:53;;;;;;;80.85;52.83;;;153.90;2252.80;;;;;;5093068;28;20111;-82
2021/10/30 00:55:23;;;;;;;79.95;50.17;;;154.20;2252.80;;;;;;5092975;28;20119;-80
2021/10/30 00:57:52;;;;;;;72.00;43.67;;;154.30;2252.80;;;;;;5093548;28;20020;-79
2021/10/30 01:00:18;;;;;;;75.82;46.55;;;154.30;2252.80;;;;;;5094026;28;20048;-79
2021/10/30 01:02:44;;;;;;;100.30;62.53;;;154.20;2252.80;;;;;;5093395;28;20020;-79
2021/10/30 01:05:10;;;;;;;105.13;66.03;;;154.10;2252.80;;;;;;5094381;28;20035;-81
2021/10/30 01:07:37;;;;;;;98.30;61.17;;;154.20;2252.80;;;;;;5092674;28;20020;-81
2021/10/30 01:10:03;;;;;;;81.35;50.05;;;154.10;2252.80;;;;;;5093576;28;20024;-80
2021/10/30 01:12:30;;;;;;;70.45;47.00;;;154.50;2252.80;;;;;;5093079;28;20027;-81
2021/10/30 01:14:57;;;;;;;77.80;46.20;;;153.90;2252.80;;;;;;5093999;28;20020;-79
2021/10/30 01:17:23;;;;;;;79.53;47.40;;;153.80;2252.80;;;;;;5093175;28;20336;-79
2021/10/30 01:19:53;;;;;;;71.70;45.20;;;153.90;2252.80;;;;;;5094462;28;20024;-77
2021/10/30 01:22:21;;;;;;;69.75;43.03;;;153.80;2252.80;;;;;;5093023;28;20558;-81
2021/10/30 01:24:47;;;;;;;98.68;60.17;;;153.90;2252.80;;;;;;5093446;28;20039;-81
2021/10/30 01:27:18;;;;;;;96.88;61.90;;;179.40;2252.80;;;;;;5093863;28;20505;-77
2021/10/30 01:29:47;;;;;;;72.22;45.70;;;153.60;2252.80;;;;;;5092734;28;20044;-80
2021/10/30 01:32:15;;;;;;;81.63;49.60;;;153.70;2252.80;;;;;;5091991;28;20016;-82
2021/10/30 01:34:41;;;;;;;76.68;46.95;;;153.80;2252.80;;;;;;5092055;28;20119;-76
2021/10/30 01:37:07;;;;;;;73.22;43.08;;;153.90;2252.80;;;;;;5092271;28;20123;-80
2021/10/30 01:39:34;;;;;;;70.00;43.35;;;153.90;2252.80;;;;;;5092547;28;20027;-81
2021/10/30 01:42:00;;;;;;;79.30;45.08;;;153.90;2252.80;;;;;;5093786;28;20020;-81
2021/10/30 01:44:27;;;;;;;94.65;55.58;;;154.00;2252.80;;;;;;5093825;28;20036;-81
2021/10/30 01:46:58;;;;;;;95.20;58.65;;;153.90;2252.80;;;;;;5092224;28;20024;-81
2021/10/30 01:49:25;;;;;;;100.35;62.45;;;153.80;2252.80;;;;;;5092347;28;20067;-80
2021/10/30 01:51:51;;;;;;;111.00;68.25;;;153.90;2252.80;;;;;;5092392;28;20016;-77
2021/10/30 01:54:17;;;;;;;111.22;70.85;;;154.00;2252.80;;;;;;5092612;28;20363;-81
2021/10/30 01:56:43;;;;;;;105.88;65.22;;;153.90;2252.80;;;;;;5091576;28;20391;-78
2021/10/30 01:59:09;;;;;;;108.03;65.40;;;153.70;2252.80;;;;;;5093752;28;20016;-80
2021/10/30 02:01:35;;;;;;;81.22;50.42;;;153.80;2252.80;;;;;;5097060;28;20119;-79
2021/10/30 02:04:02;;;;;;;73.43;46.65;;;153.60;2252.80;;;;;;5096465;28;20028;-79
2021/10/30 02:06:28;;;;;;;77.85;51.30;;;128.90;2252.80;;;;;;5096793;28;20032;-80
2021/10/30 02:08:54;;;;;;;87.97;54.30;;;153.60;2252.80;;;;;;5096501;28;20020;-79
2021/10/30 02:11:20;;;;;;;78.05;51.78;;;153.60;2252.80;;;;;;5096204;28;20375;-80
2021/10/30 02:13:46;;;;;;;90.85;59.47;;;153.80;2252.80;;;;;;5096497;28;20108;-78
2021/10/30 02:16:13;;;;;;;101.70;62.90;;;153.90;2252.80;;;;;;5095595;28;20435;-82
2021/10/30 02:18:40;;;;;;;84.35;57.55;;;153.80;2252.80;;;;;;5096222;28;20024;-79
2021/10/30 02:21:06;;;;;;;96.22;62.50;;;153.80;2252.80;;;;;;5097487;28;20024;-80
2021/10/30 02:23:32;;;;;;;82.25;52.85;;;153.60;2252.80;;;;;;5095966;28;20109;-79
2021/10/30 02:25:58;;;;;;;86.18;55.78;;;128.90;2252.80;;;;;;5096272;28;20056;-78
2021/10/30 02:28:24;;;;;;;70.22;45.95;;;153.60;2252.80;;;;;;5096104;28;20372;-80
2021/10/30 02:30:50;;;;;;;79.53;48.40;;;128.80;2252.80;;;;;;5095350;28;20027;-81
2021/10/30 02:33:15;;;;;;;72.75;49.42;;;128.70;2252.80;;;;;;5095271;28;20456;-80
2021/10/30 02:35:42;;;;;;;65.05;42.13;;;128.80;2252.80;;;;;;5095586;28;20073;-78
2021/10/30 02:38:08;;;;;;;65.00;40.63;;;128.60;2252.80;;;;;;5095861;28;20020;-78
2021/10/30 02:40:34;;;;;;;59.00;37.75;;;128.60;2252.80;;;;;;5095482;28;20106;-77
2021/10/30 02:43:00;;;;;;;54.03;34.50;;;128.60;2252.80;;;;;;5095814;28;20031;-79
2021/10/30 02:45:26;;;;;;;43.58;29.83;;;128.60;2252.80;;;;;;5095287;28;20032;-79
2021/10/30 02:47:52;;;;;;;56.63;31.67;;;128.50;2252.80;;;;;;5095308;28;20038;-78
2021/10/30 02:50:19;;;;;;;56.70;34.50;;;128.50;2252.80;;;;;;5095514;28;20016;-78
2021/10/30 02:52:45;;;;;;;96.72;47.13;;;128.50;2252.80;;;;;;5096192;28;20480;-80
2021/10/30 02:55:11;;;;;;;52.85;33.47;;;128.70;2252.80;;;;;;5096438;28;20103;-80
2021/10/30 02:57:44;;;;;;;55.15;31.45;;;128.70;2252.80;;;;;;5097053;28;20436;-79
2021/10/30 03:00:11;;;;;;;54.65;33.95;;;128.30;2252.80;;;;;;5096338;28;20040;-79
2021/10/30 03:02:37;;;;;;;119.13;45.72;;;128.50;2252.80;;;;;;5095396;28;20024;-79
2021/10/30 03:05:03;;;;;;;77.88;38.33;;;128.20;2252.80;;;;;;5096417;28;20039;-79
2021/10/30 03:07:29;;;;;;;58.03;35.60;;;128.20;2252.80;;;;;;5096029;28;20099;-80
2021/10/30 03:09:55;;;;;;;51.35;33.70;;;128.20;2252.80;;;;;;5095172;28;20109;-80
2021/10/30 03:12:21;;;;;;;59.00;38.03;;;128.30;2252.80;;;;;;5095116;28;20056;-80
2021/10/30 03:14:47;;;;;;;52.88;35.42;;;128.20;2252.80;;;;;;5094729;28;20430;-79
2021/10/30 03:17:13;;;;;;;61.03;36.03;;;128.30;2252.80;;;;;;5094866;28;20024;-79
2021/10/30 03:19:39;;;;;;;112.75;50.40;;;128.50;2252.80;;;;;;5094891;28;20020;-79
2021/10/30 03:22:05;;;;;;;48.70;27.88;;;128.60;2252.80;;;;;;5095148;28;20055;-78
2021/10/30 03:24:31;;;;;;;51.15;28.50;;;128.30;2252.80;;;;;;5096300;28;20456;-79
2021/10/30 03:26:56;;;;;;;46.30;27.80;;;128.10;2252.80;;;;;;5094640;28;20026;-78
2021/10/30 03:29:22;;;;;;;52.95;36.22;;;103.20;2227.20;;;;;;5094341;28;20349;-78
2021/10/30 03:31:48;;;;;;;73.88;45.13;;;103.30;2227.20;;;;;;5094475;28;20027;-79
2021/10/30 03:34:14;;;;;;;85.72;51.15;;;103.10;2227.20;;;;;;5094586;28;20391;-80
2021/10/30 03:36:39;;;;;;;88.30;51.70;;;103.30;2227.20;;;;;;5096145;28;20069;-79
2021/10/30 03:39:05;;;;;;;162.70;69.45;;;103.30;2227.20;;;;;;5094975;28;20115;-81
2021/10/30 03:41:31;;;;;;;131.23;59.03;;;103.30;2227.20;;;;;;5094465;28;20452;-78
2021/10/30 03:43:57;;;;;;;86.63;42.83;;;103.30;2227.20;;;;;;5094731;28;20028;-80
2021/10/30 03:46:23;;;;;;;65.25;35.55;;;128.00;2252.80;;;;;;5094602;28;20388;-80
2021/10/30 03:48:48;;;;;;;48.40;31.35;;;128.00;2252.80;;;;;;5094299;28;20024;-81
2021/10/30 03:51:14;;;;;;;48.72;31.55;;;103.20;2227.20;;;;;;5093578;28;20359;-77
2021/10/30 03:53:40;;;;;;;45.03;29.25;;;103.20;2227.20;;;;;;5094445;28;20024;-82
2021/10/30 03:56:06;;;;;;;46.67;31.75;;;102.90;2227.20;;;;;;5095143;28;20020;-80
2021/10/30 03:58:34;;;;;;;47.20;29.88;;;103.00;2227.20;;;;;;5094434;28;20030;-82
2021/10/30 04:00:59;;;;;;;42.05;27.85;;;102.90;2227.20;;;;;;5094028;28;20093;-81
2021/10/30 04:03:25;;;;;;;41.53;28.08;;;103.00;2227.20;;;;;;5093464;28;20375;-82
2021/10/30 04:05:51;;;;;;;47.03;31.70;;;103.10;2227.20;;;;;;5094319;28;20024;-80
2021/10/30 04:08:19;;;;;;;50.70;31.08;;;103.10;2227.20;;;;;;5094010;28;20047;-80
2021/10/30 04:10:46;;;;;;;48.10;29.38;;;102.70;2227.20;;;;;;5094448;28;20395;-82
2021/10/30 04:13:11;;;;;;;48.85;32.55;;;102.90;2227.20;;;;;;5093821;28;20016;-80
2021/10/30 04:15:37;;;;;;;46.78;31.00;;;102.90;2227.20;;;;;;5093611;28;20042;-81
2021/10/30 04:18:03;;;;;;;56.08;34.97;;;102.80;2227.20;;;;;;5094085;28;20027;-80
2021/10/30 04:20:29;;;;;;;99.88;57.90;;;103.00;2227.20;;;;;;5095336;28;20012;-81
2021/10/30 04:22:55;;;;;;;77.00;47.70;;;102.90;2227.20;;;;;;5093153;28;20020;-79
2021/10/30 04:25:21;;;;;;;70.20;41.90;;;103.00;2227.20;;;;;;5093828;28;20478;-80
2021/10/30 04:27:47;;;;;;;80.50;50.10;;;102.80;2227.20;;;;;;5093903;28;20027;-80
2021/10/30 04:30:13;;;;;;;85.07;51.75;;;102.90;2227.20;;;;;;5093710;28;20024;-81
2021/10/30 04:32:38;;;;;;;67.18;43.10;;;102.90;2227.20;;;;;;5093896;28;20435;-80
2021/10/30 04:35:07;;;;;;;107.47;59.58;;;103.00;2227.20;;;;;;5093697;28;20055;-78
2021/10/30 04:37:33;;;;;;;64.63;40.78;;;102.90;2227.20;;;;;;5093540;28;20074;-82
2021/10/30 04:40:00;;;;;;;62.38;39.00;;;102.60;2227.20;;;;;;5093286;28;20023;-79
2021/10/30 04:42:26;;;;;;;52.10;34.75;;;102.80;2227.20;;;;;;5093538;28;20043;-81
2021/10/30 04:44:52;;;;;;;54.33;35.33;;;102.90;2227.20;;;;;;5093119;28;20027;-82
2021/10/30 04:47:18;;;;;;;55.03;36.00;;;102.90;2227.20;;;;;;5093541;28;20077;-82
2021/10/30 04:49:45;;;;;;;52.15;35.60;;;102.90;2227.20;;;;;;5093655;28;20411;-80
2021/10/30 04:52:12;;;;;;;53.92;34.90;;;103.00;2227.20;;;;;;5093027;28;20360;-81
2021/10/30 04:54:38;;;;;;;60.63;39.53;;;102.70;2227.20;;;;;;5093419;28;20111;-81
2021/10/30 04:57:04;;;;;;;61.92;40.13;;;103.00;2227.20;;;;;;5093082;28;20111;-79
2021/10/30 04:59:30;;;;;;;60.00;38.92;;;102.80;2227.20;;;;;;5094265;28;20027;-80
2021/10/30 05:01:55;;;;;;;71.00;49.08;;;102.80;2227.20;;;;;;5091764;28;20051;-79
2021/10/30 05:04:21;;;;;;;52.70;36.83;;;102.90;2227.20;;;;;;5092884;28;20066;-82
2021/10/30 05:06:47;;;;;;;45.47;30.55;;;102.90;2227.20;;;;;;5093123;28;20032;-80
2021/10/30 05:09:13;;;;;;;46.03;30.52;;;102.80;2227.20;;;;;;5093146;28;20022;-79
2021/10/30 05:11:39;;;;;;;47.72;31.27;;;103.00;2227.20;;;;;;5094011;28;20359;-81
2021/10/30 05:14:05;;;;;;;55.03;38.03;;;103.00;2227.20;;;;;;5094418;28;20026;-80
2021/10/30 05:16:31;;;;;;;55.55;37.13;;;102.80;2227.20;;;;;;5092948;28;20051;-81
2021/10/30 05:18:57;;;;;;;65.80;39.08;;;102.80;2227.20;;;;;;5092687;28;20024;-79
2021/10/30 05:21:22;;;;;;;87.18;60.63;;;102.60;2227.20;;;;;;5094157;28;20020;-80
2021/10/30 05:23:48;;;;;;;91.60;66.28;;;102.60;2227.20;;;;;;5094489;28;20024;-79
2021/10/30 05:26:14;;;;;;;56.60;40.65;;;102.70;2227.20;;;;;;5092734;28;20120;-81
2021/10/30 05:28:40;;;;;;;60.13;36.75;;;102.60;2227.20;;;;;;5092584;28;20424;-79
2021/10/30 05:31:06;;;;;;;64.68;42.40;;;102.70;2227.20;;;;;;5093858;28;20027;-78
2021/10/30 05:33:32;;;;;;;87.10;56.38;;;102.70;2227.20;;;;;;5093164;28;20448;-79
2021/10/30 05:35:58;;;;;;;71.80;45.58;;;102.80;2227.20;;;;;;5091233;28;20028;-80
2021/10/30 05:38:24;;;;;;;83.15;52.10;;;102.80;2227.20;;;;;;5093086;28;20428;-82
2021/10/30 05:40:50;;;;;;;77.95;50.53;;;102.70;2227.20;;;;;;5093751;28;20024;-78
2021/10/30 05:43:16;;;;;;;74.35;45.72;;;102.70;2227.20;;;;;;5092539;28;20107;-79
2021/10/30 05:45:44;;;;;;;65.72;41.80;;;102.50;2227.20;;;;;;5092678;28;20123;-80
2021/10/30 05:48:13;;;;;;;69.40;43.08;;;102.50;2227.20;;;;;;5092523;28;20020;-79
2021/10/30 05:50:39;;;;;;;72.20;44.78;;;102.50;2227.20;;;;;;5093457;28;20341;-79
2021/10/30 05:53:05;;;;;;;75.70;51.65;;;102.50;2227.20;;;;;;5093802;28;20031;-80
2021/10/30 05:55:31;;;;;;;80.85;53.38;;;77.70;2227.20;;;;;;5091137;28;20409;-81
2021/10/30 05:57:57;;;;;;;83.78;56.75;;;77.70;2227.20;;;;;;5093794;28;20099;-80
2021/10/30 06:00:23;;;;;;;88.82;55.15;;;102.60;2227.20;;;;;;5093014;28;20071;-80
2021/10/30 06:02:49;;;;;;;90.95;56.03;;;102.70;2227.20;;;;;;5093865;28;20447;-79
2021/10/30 06:05:14;;;;;;;75.10;51.30;;;102.70;2227.20;;;;;;5092231;28;20035;-78
2021/10/30 06:07:40;;;;;;;78.45;52.53;;;102.50;2227.20;;;;;;5092230;28;20023;-78
2021/10/30 06:10:08;;;;;;;94.00;66.60;;;102.70;2227.20;;;;;;5092521;28;20486;-82
2021/10/30 06:12:38;;;;;;;94.13;64.63;;;102.80;2227.20;;;;;;5091405;28;20020;-79
2021/10/30 06:15:08;;;;;;;79.75;51.67;;;102.90;2227.20;;;;;;5092119;28;20031;-79
2021/10/30 06:17:34;;;;;;;84.43;52.10;;;102.60;2227.20;;;;;;5091750;28;20020;-82
2021/10/30 06:20:01;;;;;;;88.97;53.00;;;102.90;2227.20;;;;;;5092533;28;20016;-80
2021/10/30 06:22:27;;;;;;;75.65;48.10;;;102.60;2227.20;;;;;;5091664;28;20016;-82
2021/10/30 06:24:53;;;;;;;66.07;39.97;;;102.50;2227.20;;;;;;5092367;28;20348;-79
2021/10/30 06:27:19;;;;;;;62.85;40.60;;;102.50;2227.20;;;;;;5091805;28;20122;-80
2021/10/30 06:29:45;;;;;;;69.82;47.45;;;102.80;2227.20;;;;;;5091205;28;20552;-82
2021/10/30 06:32:10;;;;;;;63.17;41.28;;;102.90;2227.20;;;;;;5092191;28;20082;-80
2021/10/30 06:34:36;;;;;;;54.47;38.58;;;103.10;2227.20;;;;;;5091711;28;20020;-82
2021/10/30 06:37:02;;;;;;;58.53;39.60;;;103.20;2227.20;;;;;;5093250;28;20026;-80
2021/10/30 06:39:28;;;;;;;55.88;36.05;;;103.20;2227.20;;;;;;5092184;28;20046;-80
2021/10/30 06:41:54;;;;;;;60.00;39.55;;;103.20;2227.20;;;;;;5092279;28;20050;-82
2021/10/30 06:44:20;;;;;;;69.13;45.47;;;128.00;2252.80;;;;;;5091821;28;20028;-81
2021/10/30 06:46:47;;;;;;;75.35;49.83;;;128.00;2252.80;;;;;;5095583;28;20378;-82
2021/10/30 06:49:14;;;;;;;63.60;47.05;;;128.10;2252.80;;;;;;5095522;28;20016;-79
2021/10/30 06:51:40;;;;;;;79.22;56.78;;;128.30;2252.80;;;;;;5094825;28;20031;-80
2021/10/30 06:54:07;;;;;;;91.72;66.82;;;128.30;2252.80;;;;;;5095044;28;20020;-81
2021/10/30 06:56:38;;;;;;;87.32;59.65;;;128.50;2252.80;;;;;;5096172;28;20099;-78
2021/10/30 06:59:05;;;;;;;72.38;51.28;;;128.70;2252.80;;;;;;5095232;28;20024;-81
2021/10/30 07:01:32;;;;;;;70.13;49.38;;;128.70;2252.80;;;;;;5095167;28;20126;-79
2021/10/30 07:03:58;;;;;;;61.13;45.42;;;128.90;2252.80;;;;;;5095354;28;20470;-81
2021/10/30 07:06:24;;;;;;;61.08;44.00;;;153.70;2252.80;;;;;;5094614;28;20016;-81
2021/10/30 07:08:50;;;;;;;51.97;40.33;;;153.70;2252.80;;;;;;5095551;28;20028;-79
2021/10/30 07:11:15;;;;;;;65.78;47.22;;;153.60;2252.80;;;;;;5095324;28;20110;-82
2021/10/30 07:13:41;;;;;;;56.85;39.60;;;153.80;2252.80;;;;;;5095143;28;20027;-81
2021/10/30 07:16:09;;;;;;;54.58;42.38;;;153.70;2252.80;;;;;;5096158;28;20115;-80
2021/10/30 07:18:35;;;;;;;52.45;36.67;;;153.80;2252.80;;;;;;5095965;28;20023;-81
2021/10/30 07:21:01;;;;;;;51.22;35.42;;;153.90;2252.80;;;;;;5095830;28;20024;-78
2021/10/30 07:23:26;;;;;;;50.90;36.40;;;154.00;2252.80;;;;;;5094926;28;20016;-77
2021/10/30 07:25:52;;;;;;;52.65;34.13;;;154.00;2252.80;;;;;;5095139;28;20054;-79
2021/10/30 07:28:18;;;;;;;50.28;35.92;;;154.10;2252.80;;;;;;5096105;28;20410;-78
2021/10/30 07:30:44;;;;;;;54.65;37.28;;;154.20;2252.80;;;;;;5095123;28;20050;-78
2021/10/30 07:33:10;;;;;;;49.47;38.45;;;154.30;2252.80;;;;;;5096803;28;20020;-78
2021/10/30 07:35:36;;;;;;;55.95;36.70;;;154.40;2252.80;;;;;;5095030;28;20359;-76
2021/10/30 07:38:02;;;;;;;53.25;35.88;;;154.50;2252.80;;;;;;5094833;28;20024;-76
2021/10/30 07:40:29;;;;;;;54.25;38.70;;;154.50;2252.80;;;;;;5094221;28;20027;-74
2021/10/30 07:42:57;;;;;;;84.03;59.40;;;179.20;2252.80;;;;;;5095912;28;20012;-74
2021/10/30 07:45:24;;;;;;;61.30;43.33;;;179.30;2252.80;;;;;;5094358;28;20031;-73
2021/10/30 07:47:50;;;;;;;59.30;39.67;;;179.40;2252.80;;;;;;5095899;28;20016;-74
2021/10/30 07:50:16;;;;;;;51.42;37.70;;;179.40;2252.80;;;;;;5094641;28;20081;-74
2021/10/30 07:52:42;;;;;;;54.20;36.33;;;179.50;2252.80;;;;;;5095595;28;20100;-75
2021/10/30 07:55:09;;;;;;;56.83;39.75;;;179.60;2252.80;;;;;;5096038;28;20052;-74
2021/10/30 07:57:35;;;;;;;49.33;35.83;;;179.80;2252.80;;;;;;5093072;28;20054;-76
2021/10/30 08:00:02;;;;;;;41.05;31.90;;;179.90;2252.80;;;;;;5095191;28;20063;-76
2021/10/30 08:02:28;;;;;;;44.08;31.55;;;180.10;2252.80;;;;;;5094605;28;20065;-75
2021/10/30 08:04:54;;;;;;;46.90;32.55;;;204.80;2252.80;;;;;;5094371;28;20024;-75
2021/10/30 08:07:19;;;;;;;47.00;33.80;;;204.80;2252.80;;;;;;5093675;28;20048;-75
2021/10/30 08:09:46;;;;;;;45.90;32.42;;;205.00;2252.80;;;;;;5094288;28;20028;-75
2021/10/30 08:12:12;;;;;;;46.38;32.05;;;205.10;2252.80;;;;;;5094133;28;20027;-75
2021/10/30 08:14:40;;;;;;;47.25;35.97;;;205.20;2252.80;;;;;;5096257;28;20027;-74
2021/10/30 08:17:07;;;;;;;48.25;35.95;;;205.40;2252.80;;;;;;5114625;28;20027;-75
2021/10/30 08:19:34;;;;;;;50.35;36.92;;;205.50;2252.80;;;;;;5118437;28;20008;-73
2021/10/30 08:22:04;;;;;;;51.50;35.10;;;205.70;2252.80;;;;;;5116155;28;20020;-74
2021/10/30 08:24:30;;;;;;;44.25;32.55;;;230.50;2252.80;;;;;;5110272;28;20032;-74
2021/10/30 08:26:56;;;;;;;49.03;37.78;;;230.80;2252.80;;;;;;5109352;28;20031;-74
2021/10/30 08:29:22;;;;;;;49.95;33.75;;;230.90;2252.80;;;;;;5107588;28;20027;-74
2021/10/30 08:31:48;;;;;;;44.28;35.10;;;231.00;2252.80;;;;;;5109899;28;20020;-74
2021/10/30 08:34:15;;;;;;;44.88;33.40;;;231.10;2252.80;;;;;;5110220;28;20051;-75
2021/10/30 08:36:41;;;;;;;44.78;31.35;;;231.20;2252.80;;;;;;5109009;28;20099;-76
2021/10/30 08:39:07;;;;;;;43.15;31.90;;;256.00;2252.80;;;;;;5093001;28;20035;-76
2021/10/30 08:41:33;;;;;;;31.30;23.40;;;256.30;2252.80;;;;;;5093637;28;20024;-75
2021/10/30 08:44:02;;;;;;;36.03;26.40;;;256.40;2252.80;;;;;;5094547;28;20024;-74
2021/10/30 08:46:29;;;;;;;37.00;27.17;;;256.70;2252.80;;;;;;5094228;28;20016;-76
2021/10/30 08:48:55;;;;;;;35.78;29.60;;;256.50;2252.80;;;;;;5093833;28;20077;-75
2021/10/30 08:51:21;;;;;;;39.70;31.75;;;256.70;2252.80;;;;;;5094410;28;20444;-74
2021/10/30 08:53:47;;;;;;;44.30;33.67;;;256.90;2252.80;;;;;;5094590;28;20035;-75
2021/10/30 08:56:13;;;;;;;47.97;32.60;;;281.70;2278.40;;;;;;5094248;28;20026;-76
2021/10/30 08:58:39;;;;;;;32.03;25.60;;;282.00;2278.40;;;;;;5094290;28;20099;-75
2021/10/30 09:01:10;;;;;;;36.47;26.17;;;282.10;2278.40;;;;;;5092999;28;20044;-75
2021/10/30 09:03:37;;;;;;;37.85;28.30;;;282.20;2278.40;;;;;;5094319;28;20024;-74
2021/10/30 09:06:04;;;;;;;38.05;28.83;;;282.40;2278.40;;;;;;5092790;28;20036;-75
2021/10/30 09:08:30;;;;;;;36.50;29.35;;;282.50;2278.40;;;;;;5092784;28;20020;-74
2021/10/30 09:11:07;;;;;;;43.67;31.70;;;282.50;2278.40;;;;;;5093680;28;20035;-75
2021/10/30 09:13:34;;;;;;;36.53;24.50;;;307.20;2304.00;;;;;;5094088;28;20398;-75
2021/10/30 09:16:01;;;;;;;34.20;23.60;;;307.30;2304.00;;;;;;5092809;28;20031;-74
2021/10/30 09:18:34;;;;;;;40.35;29.05;;;307.40;2304.00;;;;;;5093856;28;20448;-75
2021/10/30 09:21:18;;;;;;;35.25;25.92;;;307.50;2304.00;;;;;;5094581;28;20064;-73
2021/10/30 09:23:58;;;;;;;31.40;25.98;;;307.60;2304.00;;;;;;5092534;28;20016;-74
2021/10/30 09:26:25;;;;;;;29.88;24.20;;;307.80;2304.00;;;;;;5092846;28;20062;-78
2021/10/30 09:28:53;;;;;;;31.27;23.98;;;308.00;2304.00;;;;;;5093988;28;20027;-74
2021/10/30 09:31:25;;;;;;;33.63;26.67;;;332.80;2329.60;;;;;;5092161;28;20078;-75
2021/10/30 09:33:54;;;;;;;33.25;25.73;;;332.90;2329.60;;;;;;5094117;28;20081;-73
2021/10/30 09:36:31;;;;;;;38.13;29.73;;;332.90;2329.60;;;;;;5092588;28;20465;-75
2021/10/30 09:39:00;;;;;;;38.75;27.08;;;332.90;2329.60;;;;;;5092348;28;20012;-77
2021/10/30 09:41:35;;;;;;;32.75;22.63;;;332.90;2329.60;;;;;;5092510;28;20352;-76
2021/10/30 09:44:18;;;;;;;34.97;25.55;;;333.10;2329.60;;;;;;5093869;28;20512;-75
2021/10/30 09:46:44;;;;;;;42.17;28.23;;;333.20;2329.60;;;;;;5093913;28;20055;-77
2021/10/30 09:49:16;;;;;;;31.40;22.63;;;333.20;2329.60;;;;;;5093881;28;20020;-78
2021/10/30 09:51:43;;;;;;;32.05;23.80;;;333.20;2329.60;;;;;;5093739;28;20020;-73
2021/10/30 09:54:09;;;;;;;25.75;19.08;;;333.40;2329.60;;;;;;5092590;28;20016;-74
2021/10/30 09:56:38;;;;;;;21.42;17.90;;;333.60;2329.60;;;;;;5093837;28;20096;-77
2021/10/30 09:59:06;;;;;;;26.60;19.40;;;358.50;2329.60;;;;;;5093518;28;20020;-77
2021/10/30 10:01:35;;;;;;;28.60;21.00;;;358.50;2329.60;;;;;;5093283;28;20459;-76
2021/10/30 10:04:01;;;;;;;27.17;20.27;;;358.70;2329.60;;;;;;5091211;28;20158;-78
2021/10/30 10:06:30;;;;;;;30.67;23.33;;;358.90;2329.60;;;;;;5092162;28;20352;-73
2021/10/30 10:08:57;;;;;;;35.60;25.88;;;359.00;2329.60;;;;;;5092150;28;20020;-75
2021/10/30 10:11:23;;;;;;;36.08;24.30;;;359.00;2329.60;;;;;;5091735;28;20394;-77
2021/10/30 10:13:50;;;;;;;26.45;20.38;;;359.00;2329.60;;;;;;5093232;28;20028;-76
2021/10/30 10:16:21;;;;;;;32.47;25.08;;;359.10;2329.60;;;;;;5091813;28;20079;-78
2021/10/30 10:18:51;;;;;;;27.17;23.40;;;359.10;2329.60;;;;;;5092158;28;20027;-78
2021/10/30 10:21:20;;;;;;;29.35;20.10;;;359.20;2329.60;;;;;;5093439;28;20374;-74
2021/10/30 10:23:46;;;;;;;26.67;20.80;;;359.10;2329.60;;;;;;5095782;28;20032;-76
2021/10/30 10:26:14;;;;;;;24.88;20.77;;;359.20;2329.60;;;;;;5096858;28;20028;-78
2021/10/30 10:28:40;;;;;;;23.88;17.27;;;359.20;2329.60;;;;;;5097380;28;20016;-78
2021/10/30 10:31:20;;;;;;;25.85;18.77;;;384.00;2329.60;;;;;;5095464;28;20034;-78
2021/10/30 10:34:24;;;;;;;56.30;21.80;;;384.00;2329.60;;;;;;5095250;28;20020;-79
2021/10/30 10:37:13;;;;;;;21.48;16.15;;;384.10;2329.60;;;;;;5095991;28;20483;-80
2021/10/30 10:39:50;;;;;;;19.83;15.82;;;384.10;2329.60;;;;;;5096872;28;20074;-77
2021/10/30 10:42:37;;;;;;;24.38;19.33;;;384.10;2329.60;;;;;;5095644;28;20020;-77
2021/10/30 10:45:10;;;;;;;36.17;22.30;;;384.30;2329.60;;;;;;5095119;28;20036;-76
2021/10/30 10:47:39;;;;;;;25.88;17.10;;;384.40;2329.60;;;;;;5095612;28;20024;-77
2021/10/30 10:50:19;;;;;;;19.25;15.10;;;384.20;2329.60;;;;;;5096719;28;20048;-76
2021/10/30 10:55:58;;;;;;;27.23;21.15;;;384.60;2329.60;;;;;;5092030;28;20119;-74
2021/10/30 10:58:23;;;;;;;26.30;19.50;;;384.90;2329.60;;;;;;5094260;28;20020;-76
2021/10/30 11:01:13;;;;;;;22.40;18.58;;;384.90;2329.60;;;;;;5096334;28;20526;-74
2021/10/30 11:03:44;;;;;;;22.10;17.73;;;409.70;2355.20;;;;;;5096784;28;20513;-75
2021/10/30 11:06:10;;;;;;;28.35;20.20;;;409.90;2355.20;;;;;;5095316;28;20032;-76
2021/10/30 11:08:36;;;;;;;24.55;17.17;;;410.20;2355.20;;;;;;5096346;28;20051;-75
2021/10/30 11:11:27;;;;;;;22.73;20.17;;;410.30;2355.20;;;;;;5094498;28;20024;-75
2021/10/30 11:13:56;;;;;;;25.50;20.55;;;435.30;2355.20;;;;;;5094391;28;20086;-75
2021/10/30 11:16:28;;;;;;;27.35;22.63;;;435.70;2355.20;;;;;;5094068;28;20020;-77
2021/10/30 11:19:21;;;;;;;25.63;18.73;;;436.00;2355.20;;;;;;5096149;28;20422;-76
2021/10/30 11:21:48;;;;;;;;;;;460.80;2304.00;;;;;;5096643;28;20034;-75
2021/10/30 11:24:19;;;;;;;34.42;24.48;;;461.00;2304.00;;;;;;5096184;28;19899;-75
2021/10/30 11:26:55;;;;;;;23.73;18.80;;;461.20;2252.80;;;;;;5095113;28;20107;-77
2021/10/30 11:29:20;;;;;;;21.90;17.48;;;461.40;2227.20;;;;;;5096279;28;20024;-76
2021/10/30 11:31:52;;;;;;;24.98;19.42;;;461.70;2201.60;;;;;;5096106;28;20024;-75
2021/10/30 11:34:19;;;;;;;24.42;17.80;;;486.40;2150.40;;;;;;5094958;28;20497;-75
2021/10/30 11:36:46;;;;;;;21.30;16.40;;;486.70;2099.20;;;;;;5095691;28;20028;-76
2021/10/30 11:39:13;;;;;;;20.90;17.40;;;486.80;2099.20;;;;;;5094711;28;20467;-75
2021/10/30 11:41:42;;;;;;;21.52;16.70;;;486.80;2022.40;;;;;;5094578;28;20016;-76
2021/10/30 11:44:14;;;;;;;24.42;16.00;;;487.00;1996.80;;;;;;5095622;28;20016;-75
2021/10/30 11:46:55;;;;;;;19.52;14.90;;;487.00;2022.40;;;;;;5094641;28;20016;-76
2021/10/30 11:49:32;;;;;;;24.87;19.80;;;487.20;1996.80;;;;;;5095686;28;20081;-75
2021/10/30 11:52:10;;;;;;;30.55;23.65;;;487.30;1971.20;;;;;;5094286;28;20261;-74
2021/10/30 11:54:37;;;;;;;29.55;22.45;;;512.10;1971.20;;;;;;5095942;28;20039;-75
2021/10/30 11:57:04;;;;;;;24.27;18.80;;;512.30;1971.20;;;;;;5094415;28;20023;-74
2021/10/30 11:59:30;;;;;;;29.48;20.55;;;512.30;1945.60;;;;;;5094162;28;20142;-76
2021/10/30 12:01:56;;;;;;;25.40;20.05;;;512.40;1920.00;;;;;;5094157;28;20131;-75
2021/10/30 12:04:32;;;;;;;23.15;18.15;;;512.60;1920.00;;;;;;5093911;28;20348;-75